createdAt,value
2023-02-06T05:51:17.093Z,101936.03
2023-02-06T05:53:46.117Z,101941.19
2023-02-06T06:13:29.209Z,101921.56
2023-02-06T06:16:07.307Z,101949.91
2023-02-06T06:25:50.961Z,101958.44
2023-02-06T06:49:59.295Z,101976.06
2023-02-06T06:52:44.321Z,101985.94
2023-02-06T07:05:43.234Z,101989.31
2023-02-06T07:19:34.482Z,102010.50
2023-02-06T07:29:00.421Z,102003.53
2023-02-06T08:11:25.380Z,102037.59
2023-02-06T08:14:08.674Z,102022.28
2023-02-06T08:26:20.238Z,102059.09
2023-02-06T08:35:59.517Z,102051.16
2023-02-06T08:45:43.390Z,102057.75
2023-02-06T08:48:13.976Z,102062.94
2023-02-06T08:51:04.866Z,102069.91
2023-02-06T08:53:49.237Z,102052.16
2023-02-06T09:05:44.784Z,102080.78
2023-02-06T09:08:39.291Z,102068.91
2023-02-06T09:14:19.180Z,102072.53
2023-02-06T09:16:47.776Z,102081.03
2023-02-06T09:19:16.145Z,102081.06
2023-02-06T09:21:55.712Z,102072.50
2023-02-06T09:24:25.226Z,102072.47
2023-02-06T09:26:59.736Z,102076.75
2023-02-06T09:29:32.224Z,102080.06
2023-02-06T09:32:01.139Z,102084.44
2023-02-06T09:34:30.077Z,102075.06
2023-02-06T09:37:00.276Z,102082.84
2023-02-06T09:39:28.489Z,102066.66
2023-02-06T09:42:01.427Z,102071.91
2023-02-06T09:44:34.031Z,102084.66
2023-02-06T09:47:12.861Z,102076.03
2023-02-06T09:49:45.622Z,102093.69
2023-02-06T09:52:37.855Z,102091.91
2023-02-06T09:55:12.526Z,102085.72
2023-02-06T09:57:47.660Z,102090.91
2023-02-06T10:00:30.579Z,102099.28
2023-02-06T10:03:13.869Z,102045.22
2023-02-06T10:05:54.046Z,102091.38
2023-02-06T10:08:27.276Z,102094.03
2023-02-06T10:10:57.332Z,102092.25
2023-02-06T10:13:30.806Z,102079.69
2023-02-06T10:16:02.911Z,102047.28
2023-02-06T10:18:36.238Z,102074.00
2023-02-06T10:21:09.815Z,102078.22
2023-02-06T10:23:48.006Z,102062.09
2023-02-06T10:26:19.140Z,102071.56
2023-02-06T10:28:51.577Z,102054.50
2023-02-06T10:31:50.725Z,102083.38
2023-02-06T10:34:44.736Z,102078.34
2023-02-06T10:37:32.894Z,102071.50
2023-02-06T10:40:16.815Z,102068.97
2023-02-06T10:46:06.436Z,102050.16
2023-02-06T10:48:41.189Z,102051.13
2023-02-06T10:51:18.824Z,102059.66
2023-02-06T10:53:51.964Z,102066.25
2023-02-06T10:56:25.151Z,102058.53
2023-02-06T10:58:57.620Z,102073.91
2023-02-06T11:01:28.128Z,102061.16
2023-02-06T11:04:05.302Z,102065.41
2023-02-06T11:06:34.427Z,102067.97
2023-02-06T11:09:02.697Z,102065.50
2023-02-06T11:11:37.785Z,102063.75
2023-02-06T11:14:13.481Z,102064.66
2023-02-06T11:16:42.647Z,102069.94
2023-02-06T11:19:19.832Z,102061.41
2023-02-06T11:21:57.007Z,102067.59
2023-02-06T11:24:26.480Z,102057.38
2023-02-06T11:26:59.158Z,102060.00
2023-02-06T11:29:32.013Z,102051.47
2023-02-06T11:32:02.132Z,102041.97
2023-02-06T11:34:48.225Z,102054.03
2023-02-06T11:37:33.508Z,102019.66
2023-02-06T11:40:28.592Z,102047.00
2023-02-06T11:43:19.021Z,102062.44
2023-02-06T11:45:48.612Z,102064.09
2023-02-06T11:48:33.939Z,102064.94
2023-02-06T11:51:02.825Z,102065.00
2023-02-06T11:53:31.923Z,102063.38
2023-02-06T11:56:16.336Z,102059.16
2023-02-06T11:58:46.670Z,102066.00
2023-02-06T12:01:21.333Z,102059.97
2023-02-06T12:03:57.798Z,102061.78
2023-02-06T12:06:33.897Z,102060.06
2023-02-06T12:09:03.876Z,102060.06
2023-02-06T12:11:38.146Z,102056.75
2023-02-06T12:14:14.688Z,102045.53
2023-02-06T12:16:46.364Z,102066.13
2023-02-06T12:19:19.966Z,102059.28
2023-02-06T12:21:52.113Z,102059.38
2023-02-06T12:24:29.910Z,102056.72
2023-02-06T12:27:01.427Z,102053.34
2023-02-06T12:29:36.452Z,102050.69
2023-02-06T12:32:15.283Z,102062.69
2023-02-06T12:34:53.924Z,102065.13
2023-02-06T12:37:31.744Z,102066.78
2023-02-06T12:40:01.574Z,102067.78
2023-02-06T12:42:38.282Z,102078.00
2023-02-06T12:45:17.533Z,102054.03
2023-02-06T12:47:50.540Z,102082.06
2023-02-06T12:50:23.956Z,102078.72
2023-02-06T12:52:57.308Z,102085.56
2023-02-06T12:55:31.213Z,102087.25
2023-02-06T12:57:59.919Z,102088.09
2023-02-06T13:00:52.350Z,102089.00
2023-02-06T13:03:36.752Z,102085.66
2023-02-06T13:06:14.882Z,102092.44
2023-02-06T13:08:47.844Z,102085.56
2023-02-06T13:11:27.766Z,102101.78
2023-02-06T13:14:05.587Z,102096.56
2023-02-06T13:16:45.642Z,102103.44
2023-02-06T13:19:46.679Z,102118.00
2023-02-06T13:22:41.432Z,102115.38
2023-02-06T13:25:51.477Z,102115.41
2023-02-06T13:28:46.861Z,102115.44
2023-02-06T13:31:34.256Z,102121.44
2023-02-06T13:34:09.941Z,102114.56
2023-02-06T13:37:18.932Z,102120.47
2023-02-06T13:39:49.631Z,102128.22
2023-02-06T13:42:36.874Z,102129.03
2023-02-06T13:45:07.860Z,102128.13
2023-02-06T13:48:16.569Z,102123.00
2023-02-06T13:51:17.010Z,102123.03
2023-02-06T13:54:17.564Z,102135.00
2023-02-06T13:57:00.897Z,102128.19
2023-02-06T13:59:34.079Z,102143.53
2023-02-06T14:02:12.558Z,102129.03
2023-02-06T14:04:41.779Z,102157.13
2023-02-06T14:07:36.398Z,102149.50
2023-02-06T14:10:15.595Z,102151.97
2023-02-06T14:13:01.931Z,102161.34
2023-02-06T14:15:39.377Z,102152.81
2023-02-06T14:18:35.773Z,102148.44
2023-02-06T14:21:15.801Z,102155.28
2023-02-06T14:24:07.469Z,102160.38
2023-02-06T14:26:45.179Z,102156.91
2023-02-06T14:29:26.320Z,102169.63
2023-02-06T14:32:10.699Z,102165.31
2023-02-06T14:34:55.800Z,102168.72
2023-02-06T14:37:44.217Z,102167.94
2023-02-06T14:40:17.093Z,102173.81
2023-02-06T14:42:48.082Z,102173.00
2023-02-06T14:45:28.478Z,102181.53
2023-02-06T14:48:00.683Z,102170.38
2023-02-06T14:50:32.572Z,102173.78
2023-02-06T14:53:08.056Z,102176.44
2023-02-06T14:55:39.176Z,102183.38
2023-02-06T14:58:18.979Z,102178.19
2023-02-06T15:00:49.612Z,102192.69
2023-02-06T15:03:20.185Z,102183.22
2023-02-06T15:05:58.764Z,102180.56
2023-02-06T15:08:26.903Z,102189.19
2023-02-06T15:10:59.453Z,102190.84
2023-02-06T15:13:35.084Z,102189.19
2023-02-06T15:16:08.671Z,102189.94
2023-02-06T15:18:37.996Z,102194.09
2023-02-06T15:21:08.956Z,102195.19
2023-02-06T15:23:51.843Z,102197.69
2023-02-06T15:26:28.197Z,102209.53
2023-02-06T15:28:59.223Z,102211.25
2023-02-06T15:31:30.032Z,102212.16
2023-02-06T15:34:00.564Z,102212.84
2023-02-06T15:36:31.969Z,102226.69
2023-02-06T15:39:00.752Z,102218.03
2023-02-06T15:41:31.293Z,102240.28
2023-02-06T15:44:05.464Z,102244.31
2023-02-06T15:46:35.640Z,102251.19
2023-02-06T15:49:04.702Z,102237.50
2023-02-06T15:51:42.779Z,102241.81
2023-02-06T15:54:20.838Z,102254.63
2023-02-06T15:56:53.284Z,102268.16
2023-02-06T15:59:30.870Z,102268.19
2023-02-06T16:02:01.720Z,102266.53
2023-02-06T16:04:32.788Z,102280.19
2023-02-06T16:07:05.619Z,102285.38
2023-02-06T16:09:40.155Z,102290.31
2023-02-06T16:12:08.978Z,102295.44
2023-02-06T16:14:39.358Z,102298.81
2023-02-06T16:17:26.645Z,102286.16
2023-02-06T16:19:56.906Z,102301.25
2023-02-06T16:22:27.789Z,102285.00
2023-02-06T16:25:14.942Z,102305.25
2023-02-06T16:27:46.627Z,102306.81
2023-02-06T16:30:26.003Z,102311.19
2023-02-06T16:32:57.974Z,102311.25
2023-02-06T16:35:27.079Z,102322.16
2023-02-06T16:37:56.208Z,102321.28
2023-02-06T16:40:27.424Z,102322.91
2023-02-06T16:42:56.065Z,102323.81
2023-02-06T16:45:27.195Z,102325.44
2023-02-06T16:47:57.962Z,102329.75
2023-02-06T16:50:26.422Z,102329.63
2023-02-06T16:52:56.934Z,102326.06
2023-02-06T16:55:29.012Z,102344.06
2023-02-06T16:58:00.940Z,102334.00
2023-02-06T17:00:31.698Z,102337.94
2023-02-06T17:03:01.725Z,102341.59
2023-02-06T17:05:31.686Z,102348.31
2023-02-06T17:08:01.725Z,102347.44
2023-02-06T17:10:29.818Z,102341.59
2023-02-06T17:12:58.561Z,102347.44
2023-02-06T17:15:27.105Z,102345.59
2023-02-06T17:17:55.393Z,102320.09
2023-02-06T17:20:31.392Z,102335.97
2023-02-06T17:22:59.582Z,102357.09
2023-02-06T17:25:27.989Z,102349.97
2023-02-06T17:27:56.371Z,102348.38
2023-02-06T17:30:26.771Z,102329.81
2023-02-06T17:32:55.347Z,102352.84
2023-02-06T17:35:23.744Z,102348.75
2023-02-06T17:37:53.988Z,102348.78
2023-02-06T17:40:27.650Z,102343.06
2023-02-06T17:42:57.201Z,102338.94
2023-02-06T17:45:25.736Z,102351.03
2023-02-06T17:47:54.711Z,102349.94
2023-02-06T17:50:25.007Z,102368.38
2023-02-06T17:52:56.251Z,102354.91
2023-02-06T17:55:25.640Z,102362.88
2023-02-06T17:57:54.212Z,102367.22
2023-02-06T18:00:24.385Z,102363.94
2023-02-06T18:02:53.441Z,102369.75
2023-02-06T18:05:24.447Z,102369.81
2023-02-06T18:07:52.643Z,102362.25
2023-02-06T18:10:25.354Z,102363.19
2023-02-06T18:12:54.272Z,102355.44
2023-02-06T18:15:22.773Z,102360.69
2023-02-06T18:17:51.769Z,102352.09
2023-02-06T18:20:20.081Z,102363.19
2023-02-06T18:22:48.522Z,102361.53
2023-02-06T18:25:16.759Z,102368.41
2023-02-06T18:27:46.771Z,102365.91
2023-02-06T18:30:17.387Z,102374.50
2023-02-06T18:32:46.329Z,102369.31
2023-02-06T18:35:16.546Z,102370.94
2023-02-06T18:37:45.319Z,102368.31
2023-02-06T18:40:14.704Z,102358.00
2023-02-06T18:42:51.266Z,102361.28
2023-02-06T18:45:22.448Z,102362.94
2023-02-06T18:47:51.665Z,102375.81
2023-02-06T18:50:22.278Z,102375.91
2023-02-06T18:52:51.321Z,102381.09
2023-02-06T18:55:19.972Z,102381.97
2023-02-06T18:57:48.529Z,102376.91
2023-02-06T19:00:19.074Z,102376.75
2023-02-06T19:02:49.130Z,102375.13
2023-02-06T19:05:17.824Z,102376.66
2023-02-06T19:07:50.614Z,102382.63
2023-02-06T19:10:19.182Z,102379.28
2023-02-06T19:12:48.460Z,102385.31
2023-02-06T19:15:17.087Z,102390.44
2023-02-06T19:17:45.418Z,102366.47
2023-02-06T19:20:15.230Z,102392.31
2023-02-06T19:22:43.979Z,102388.06
2023-02-06T19:25:14.543Z,102394.13
2023-02-06T19:27:43.116Z,102393.31
2023-02-06T19:30:13.183Z,102387.34
2023-02-06T19:32:41.784Z,102397.59
2023-02-06T19:35:12.099Z,102396.72
2023-02-06T19:37:41.745Z,102383.94
2023-02-06T19:40:10.776Z,102390.00
2023-02-06T19:42:40.307Z,102378.94
2023-02-06T19:45:09.080Z,102388.34
2023-02-06T19:47:37.397Z,102392.63
2023-02-06T19:50:06.529Z,102336.00
2023-02-06T19:52:35.448Z,102398.56
2023-02-06T19:55:05.884Z,102397.56
2023-02-06T19:57:34.459Z,102400.72
2023-02-06T20:00:02.642Z,102400.16
2023-02-06T20:02:30.876Z,102402.78
2023-02-06T20:05:02.107Z,102398.56
2023-02-06T20:07:31.863Z,102402.00
2023-02-06T20:10:00.177Z,102410.53
2023-02-06T20:12:30.513Z,102402.00
2023-02-06T20:15:00.995Z,102403.72
2023-02-06T20:17:29.294Z,102402.88
2023-02-06T20:19:59.921Z,102404.53
2023-02-06T20:22:28.153Z,102399.38
2023-02-06T20:24:56.218Z,102402.81
2023-02-06T20:27:24.339Z,102396.84
2023-02-06T20:29:54.208Z,102406.25
2023-02-06T20:32:22.903Z,102392.66
2023-02-06T20:34:51.332Z,102404.63
2023-02-06T20:37:19.440Z,102397.81
2023-02-06T20:39:47.761Z,102403.75
2023-02-06T20:42:16.444Z,102401.13
2023-02-06T20:44:44.578Z,102397.69
2023-02-06T20:47:14.546Z,102412.31
2023-02-06T20:49:42.976Z,102416.47
2023-02-06T20:52:11.112Z,102410.41
2023-02-06T20:54:39.608Z,102418.88
2023-02-06T20:57:07.770Z,102422.41
2023-02-06T20:59:35.863Z,102427.22
2023-02-06T21:02:04.340Z,102420.22
2023-02-06T21:04:35.022Z,102436.84
2023-02-06T21:07:03.347Z,102434.16
2023-02-06T21:09:31.724Z,102436.63
2023-02-06T21:11:59.942Z,102436.75
2023-02-06T21:14:30.398Z,102419.00
2023-02-06T21:16:58.974Z,102432.06
2023-02-06T21:19:29.289Z,102427.84
2023-02-06T21:21:59.368Z,102427.69
2023-02-06T21:24:27.645Z,102425.34
2023-02-06T21:26:56.021Z,102427.88
2023-02-06T21:29:24.402Z,102422.47
2023-02-06T21:32:03.849Z,102420.09
2023-02-06T21:34:40.877Z,102428.03
2023-02-06T21:37:10.658Z,102434.19
2023-02-06T21:39:41.143Z,102439.19
2023-02-06T21:42:09.854Z,102427.94
2023-02-06T21:44:38.510Z,102436.41
2023-02-06T21:47:09.451Z,102438.97
2023-02-06T21:49:38.114Z,102442.22
2023-02-06T21:52:06.508Z,102435.72
2023-02-06T21:54:36.331Z,102414.91
2023-02-06T21:57:04.716Z,102442.25
2023-02-06T21:59:34.321Z,102451.97
2023-02-06T22:02:02.543Z,102458.06
2023-02-06T22:04:30.736Z,102455.00
2023-02-06T22:06:59.031Z,102460.28
2023-02-06T22:09:27.792Z,102465.50
2023-02-06T22:11:58.426Z,102466.34
2023-02-06T22:14:26.840Z,102465.78
2023-02-06T22:16:54.930Z,102466.88
2023-02-06T22:19:23.126Z,102452.50
2023-02-06T22:21:51.621Z,102455.22
2023-02-06T22:24:20.357Z,102456.16
2023-02-06T22:26:49.439Z,102463.09
2023-02-06T22:29:19.704Z,102462.34
2023-02-06T22:31:48.592Z,102461.59
2023-02-06T22:34:19.423Z,102473.59
2023-02-06T22:36:48.000Z,102438.47
2023-02-06T22:39:17.176Z,102463.13
2023-02-06T22:41:47.288Z,102458.25
2023-02-06T22:44:17.307Z,102464.34
2023-02-06T22:46:50.190Z,102463.41
2023-02-06T22:49:19.468Z,102465.16
2023-02-06T22:51:48.503Z,102451.19
2023-02-06T22:54:16.637Z,102443.78
2023-02-06T22:56:45.697Z,102461.94
2023-02-06T22:59:17.015Z,102460.19
2023-02-06T23:01:48.619Z,102455.09
2023-02-06T23:04:18.992Z,102465.34
2023-02-06T23:06:48.231Z,102457.63
2023-02-06T23:09:18.943Z,102462.47
2023-02-06T23:11:47.651Z,102452.44
2023-02-06T23:14:16.880Z,102454.31
2023-02-06T23:16:47.367Z,102462.44
2023-02-06T23:19:16.509Z,102459.13
2023-02-06T23:21:47.150Z,102459.13
2023-02-06T23:24:16.398Z,102465.91
2023-02-06T23:26:47.400Z,102463.28
2023-02-06T23:29:17.984Z,102464.97
2023-02-06T23:31:48.454Z,102473.47
2023-02-06T23:34:18.484Z,102471.81
2023-02-06T23:36:47.349Z,102483.84
2023-02-06T23:39:15.610Z,102471.91
2023-02-06T23:41:44.021Z,102480.50
2023-02-06T23:44:12.606Z,102477.25
2023-02-06T23:46:41.494Z,102475.56
2023-02-06T23:49:11.232Z,102483.41
2023-02-06T23:51:39.798Z,102477.63
2023-02-06T23:54:09.679Z,102472.53
2023-02-06T23:56:38.312Z,102457.16
2023-02-06T23:59:07.205Z,102462.06
